Time;durP1;ratioP1;P1;durP2;ratioP2;P2;SDS_P1;SDS_P2;PMS_P1;PMS_P2;Temp;Humidity;BMP_temperature;BMP_pressure;BME280_temperature;BME280_humidity;BME280_pressure;Samples;Min_cycle;Max_cycle;Signal;HPM_P1;HPM_P2
2023/09/28 00:01:17;;;;;;;;;11.00;8.75;;;;;;;;5075153;27;45502;-74
2023/09/28 00:03:43;;;;;;;;;12.67;10.67;;;;;;;;5080430;27;45730;-72
2023/09/28 00:06:08;;;;;;;;;10.67;8.67;;;;;;;;5078712;27;45544;-74
2023/09/28 00:08:33;;;;;;;;;12.00;10.67;;;;;;;;5077966;27;47051;-74
2023/09/28 00:10:59;;;;;;;;;12.67;11.33;;;;;;;;5075870;28;45713;-74
2023/09/28 00:13:24;;;;;;;;;11.33;9.33;;;;;;;;5074188;27;45706;-76
2023/09/28 00:15:49;;;;;;;;;9.00;7.75;;;;;;;;5076294;27;45566;-74
2023/09/28 00:18:15;;;;;;;;;8.67;6.00;;;;;;;;5078494;27;46043;-74
2023/09/28 00:20:40;;;;;;;;;10.67;9.67;;;;;;;;5079615;27;46535;-76
2023/09/28 00:23:05;;;;;;;;;10.67;10.00;;;;;;;;5087115;27;45567;-73
2023/09/28 00:25:30;;;;;;;;;11.00;11.00;;;;;;;;5080862;27;45402;-75
2023/09/28 00:27:56;;;;;;;;;8.67;8.67;;;;;;;;5085425;27;45700;-74
2023/09/28 00:30:22;;;;;;;;;11.33;9.67;;;;;;;;5080838;28;46792;-74
2023/09/28 00:32:52;;;;;;;;;11.33;9.67;;;;;;;;5084510;27;45602;-74
2023/09/28 00:35:17;;;;;;;;;8.33;8.33;;;;;;;;5087221;27;45580;-75
2023/09/28 00:37:43;;;;;;;;;9.00;7.00;;;;;;;;5078571;27;45636;-75
2023/09/28 00:40:17;;;;;;;;;9.00;9.00;;;;;;;;5081188;27;47015;-74
2023/09/28 00:42:43;;;;;;;;;9.67;7.00;;;;;;;;5077263;27;45480;-75
2023/09/28 00:45:09;;;;;;;;;15.67;12.00;;;;;;;;5087922;27;44775;-74
2023/09/28 00:47:36;;;;;;;;;11.50;9.50;;;;;;;;5079354;27;45651;-76
2023/09/28 00:50:03;;;;;;;;;12.67;11.00;;;;;;;;5092135;27;46032;-75
2023/09/28 00:52:29;;;;;;;;;9.25;6.75;;;;;;;;5097870;27;45011;-74
2023/09/28 00:54:56;;;;;;;;;8.75;7.75;;;;;;;;5099486;27;45397;-76
2023/09/28 00:57:22;;;;;;;;;9.00;9.00;;;;;;;;5101952;27;45241;-75
2023/09/28 00:59:47;;;;;;;;;11.75;11.75;;;;;;;;5093352;27;46953;-74
2023/09/28 01:02:12;;;;;;;;;11.67;11.67;;;;;;;;5079303;27;45705;-74
2023/09/28 01:04:38;;;;;;;;;12.67;8.67;;;;;;;;5079053;27;45419;-74
2023/09/28 01:07:04;;;;;;;;;6.50;6.00;;;;;;;;5079256;28;45447;-76
2023/09/28 01:09:30;;;;;;;;;6.50;6.50;;;;;;;;5083997;27;45406;-73
2023/09/28 01:11:55;;;;;;;;;9.50;9.50;;;;;;;;5075361;27;45459;-75
2023/09/28 01:14:21;;;;;;;;;8.25;7.00;;;;;;;;5075425;28;45339;-73
2023/09/28 01:16:46;;;;;;;;;8.25;7.50;;;;;;;;5076156;27;45593;-75
2023/09/28 01:19:12;;;;;;;;;9.25;7.50;;;;;;;;5075253;27;46990;-73
2023/09/28 01:21:37;;;;;;;;;5.25;5.25;;;;;;;;5086948;27;45827;-75
2023/09/28 01:24:02;;;;;;;;;10.25;10.25;;;;;;;;5090548;27;46072;-74
2023/09/28 01:26:30;;;;;;;;;8.67;8.67;;;;;;;;5069597;27;45910;-74
2023/09/28 01:28:55;;;;;;;;;7.67;7.67;;;;;;;;5078363;27;45715;-74
2023/09/28 01:31:21;;;;;;;;;9.33;7.00;;;;;;;;5098330;27;45281;-75
2023/09/28 01:33:46;;;;;;;;;5.33;5.33;;;;;;;;5076733;27;45385;-74
2023/09/28 01:36:11;;;;;;;;;9.50;8.50;;;;;;;;5079948;27;45451;-74
2023/09/28 01:38:42;;;;;;;;;12.00;8.50;;;;;;;;5093316;27;45077;-74
2023/09/28 01:41:08;;;;;;;;;9.25;8.00;;;;;;;;5091157;27;45302;-74
2023/09/28 01:43:35;;;;;;;;;10.00;7.33;;;;;;;;5085381;27;45436;-76
2023/09/28 01:46:00;;;;;;;;;9.33;8.00;;;;;;;;5084627;27;45592;-74
2023/09/28 01:48:26;;;;;;;;;8.25;7.00;;;;;;;;5083112;27;44990;-75
2023/09/28 01:50:51;;;;;;;;;5.67;5.67;;;;;;;;5074877;27;45291;-75
2023/09/28 01:53:17;;;;;;;;;7.33;7.33;;;;;;;;5076209;27;45761;-74
2023/09/28 01:55:43;;;;;;;;;8.33;6.00;;;;;;;;5074308;27;46594;-74
2023/09/28 01:58:08;;;;;;;;;9.00;6.75;;;;;;;;5071264;27;46218;-75
2023/09/28 02:00:34;;;;;;;;;7.67;7.67;;;;;;;;5089722;27;45499;-75
2023/09/28 02:03:00;;;;;;;;;3.25;3.25;;;;;;;;5084477;27;45482;-75
2023/09/28 02:05:32;;;;;;;;;9.33;6.00;;;;;;;;5080861;27;46803;-73
2023/09/28 02:07:57;;;;;;;;;5.00;5.00;;;;;;;;5083361;27;46497;-75
2023/09/28 02:10:22;;;;;;;;;5.67;3.67;;;;;;;;5087063;27;45513;-74
2023/09/28 02:12:48;;;;;;;;;6.33;5.33;;;;;;;;5087621;27;45582;-74
2023/09/28 02:15:16;;;;;;;;;1.75;1.75;;;;;;;;5074187;28;46292;-74
2023/09/28 02:17:42;;;;;;;;;6.33;4.67;;;;;;;;5081731;27;45838;-75
2023/09/28 02:20:10;;;;;;;;;5.00;5.00;;;;;;;;5087448;27;45484;-74
2023/09/28 02:22:36;;;;;;;;;7.50;4.00;;;;;;;;5089668;27;45334;-73
2023/09/28 02:25:02;;;;;;;;;6.75;5.75;;;;;;;;5077542;28;46478;-74
2023/09/28 02:27:28;;;;;;;;;5.50;4.50;;;;;;;;5067524;27;46757;-73
2023/09/28 02:29:53;;;;;;;;;7.75;5.75;;;;;;;;5072977;27;45446;-75
2023/09/28 02:32:18;;;;;;;;;6.00;6.00;;;;;;;;5081921;27;45390;-74
2023/09/28 02:34:43;;;;;;;;;4.00;4.00;;;;;;;;5082609;27;45552;-74
2023/09/28 02:37:09;;;;;;;;;4.75;4.25;;;;;;;;5090125;27;45471;-74
2023/09/28 02:39:35;;;;;;;;;6.75;5.50;;;;;;;;5082112;27;44805;-74
2023/09/28 02:42:07;;;;;;;;;5.50;5.50;;;;;;;;5082845;27;45779;-75
2023/09/28 02:44:32;;;;;;;;;5.00;4.75;;;;;;;;5081001;27;45458;-75
2023/09/28 02:46:58;;;;;;;;;5.75;5.00;;;;;;;;5080814;28;47412;-75
2023/09/28 02:49:23;;;;;;;;;8.75;7.00;;;;;;;;5080294;27;45509;-75
2023/09/28 02:51:50;;;;;;;;;4.25;4.25;;;;;;;;5083773;27;45295;-76
2023/09/28 02:54:16;;;;;;;;;5.75;4.25;;;;;;;;5080760;27;45732;-76
2023/09/28 02:56:42;;;;;;;;;5.00;5.00;;;;;;;;5081895;27;45481;-75
2023/09/28 02:59:08;;;;;;;;;8.25;5.00;;;;;;;;5085546;27;45577;-73
2023/09/28 03:01:33;;;;;;;;;6.75;5.75;;;;;;;;5080128;27;45477;-75
2023/09/28 03:04:00;;;;;;;;;5.00;3.00;;;;;;;;5080846;27;45660;-75
2023/09/28 03:06:25;;;;;;;;;7.00;6.75;;;;;;;;5093014;27;46293;-75
2023/09/28 03:08:50;;;;;;;;;6.00;6.00;;;;;;;;5080754;27;45342;-75
2023/09/28 03:11:16;;;;;;;;;6.75;5.00;;;;;;;;5080943;27;45480;-76
2023/09/28 03:13:42;;;;;;;;;7.00;4.00;;;;;;;;5092236;27;45895;-76
2023/09/28 03:16:07;;;;;;;;;2.50;2.25;;;;;;;;5086093;27;45730;-75
2023/09/28 03:18:32;;;;;;;;;2.00;2.00;;;;;;;;5087443;27;45552;-76
2023/09/28 03:20:58;;;;;;;;;2.75;2.75;;;;;;;;5088088;27;45535;-74
2023/09/28 03:23:23;;;;;;;;;1.50;1.50;;;;;;;;5070243;28;46286;-76
2023/09/28 03:25:48;;;;;;;;;4.50;2.00;;;;;;;;5078099;27;45435;-74
2023/09/28 03:28:13;;;;;;;;;2.25;2.25;;;;;;;;5084006;27;45538;-72
2023/09/28 03:30:39;;;;;;;;;2.75;2.25;;;;;;;;5073014;28;45507;-76
2023/09/28 03:33:04;;;;;;;;;3.25;2.25;;;;;;;;5074506;27;45441;-75
2023/09/28 03:35:29;;;;;;;;;3.25;1.75;;;;;;;;5081461;27;47135;-73
2023/09/28 03:37:57;;;;;;;;;5.25;2.00;;;;;;;;5087048;27;45410;-76
2023/09/28 03:40:22;;;;;;;;;1.50;1.50;;;;;;;;5079208;27;45339;-75
2023/09/28 03:42:48;;;;;;;;;8.50;2.00;;;;;;;;5090909;27;45746;-75
2023/09/28 03:45:15;;;;;;;;;1.00;1.00;;;;;;;;5086006;27;47138;-75
2023/09/28 03:47:41;;;;;;;;;1.00;1.00;;;;;;;;5074554;27;46205;-75
2023/09/28 03:50:08;;;;;;;;;3.75;2.00;;;;;;;;5080625;27;45735;-75
2023/09/28 03:52:37;;;;;;;;;4.00;1.50;;;;;;;;5083092;27;45620;-75
2023/09/28 03:55:03;;;;;;;;;4.50;1.00;;;;;;;;5080387;27;45685;-76
2023/09/28 03:57:29;;;;;;;;;3.00;1.75;;;;;;;;5092707;27;45755;-75
2023/09/28 03:59:54;;;;;;;;;2.00;1.00;;;;;;;;5085845;27;45435;-75
2023/09/28 04:02:19;;;;;;;;;5.50;1.75;;;;;;;;5095133;27;45404;-77
2023/09/28 04:04:45;;;;;;;;;2.25;1.00;;;;;;;;5094014;27;46631;-75
2023/09/28 04:07:10;;;;;;;;;5.75;2.25;;;;;;;;5091544;27;45314;-75
2023/09/28 04:09:36;;;;;;;;;3.00;2.00;;;;;;;;5077883;27;45683;-75
2023/09/28 04:12:01;;;;;;;;;4.00;2.00;;;;;;;;5093538;27;45973;-76
2023/09/28 04:14:27;;;;;;;;;1.75;1.00;;;;;;;;5072261;27;46174;-77
2023/09/28 04:16:52;;;;;;;;;4.75;3.00;;;;;;;;5083530;27;45820;-74
2023/09/28 04:19:17;;;;;;;;;4.75;3.00;;;;;;;;5086362;27;45445;-75
2023/09/28 04:21:42;;;;;;;;;2.75;2.75;;;;;;;;5068039;27;45354;-73
2023/09/28 04:24:08;;;;;;;;;4.25;2.00;;;;;;;;5070127;27;45842;-74
2023/09/28 04:26:33;;;;;;;;;3.25;1.50;;;;;;;;5081912;27;45563;-76
2023/09/28 04:28:59;;;;;;;;;2.75;2.75;;;;;;;;5088274;27;45758;-74
2023/09/28 04:31:24;;;;;;;;;4.50;2.00;;;;;;;;5078361;27;45640;-74
2023/09/28 04:33:49;;;;;;;;;3.50;3.50;;;;;;;;5063823;28;46974;-74
2023/09/28 04:36:15;;;;;;;;;3.50;1.50;;;;;;;;5089343;27;45821;-75
2023/09/28 04:38:41;;;;;;;;;5.75;4.00;;;;;;;;5083155;27;45922;-75
2023/09/28 04:41:06;;;;;;;;;2.25;2.25;;;;;;;;5067441;27;45479;-75
2023/09/28 04:43:31;;;;;;;;;3.25;1.00;;;;;;;;5077494;27;46101;-76
2023/09/28 04:45:56;;;;;;;;;4.00;2.00;;;;;;;;5073714;27;45321;-78
2023/09/28 04:48:22;;;;;;;;;1.50;1.50;;;;;;;;5075491;27;45362;-76
2023/09/28 04:50:47;;;;;;;;;3.25;1.00;;;;;;;;5077789;27;46029;-74
2023/09/28 04:53:12;;;;;;;;;2.25;1.75;;;;;;;;5077514;27;45596;-76
2023/09/28 04:55:38;;;;;;;;;6.00;2.50;;;;;;;;5080778;27;45617;-77
2023/09/28 04:58:04;;;;;;;;;6.00;1.00;;;;;;;;5079780;27;45468;-76
2023/09/28 05:00:29;;;;;;;;;6.50;1.00;;;;;;;;5079828;27;46780;-76
2023/09/28 05:02:54;;;;;;;;;5.00;4.00;;;;;;;;5081425;27;45347;-75
2023/09/28 05:05:20;;;;;;;;;3.00;2.00;;;;;;;;5079540;27;45305;-75
2023/09/28 05:07:45;;;;;;;;;2.50;2.50;;;;;;;;5065913;27;45836;-76
2023/09/28 05:10:11;;;;;;;;;3.50;2.50;;;;;;;;5081422;27;45762;-73
2023/09/28 05:12:37;;;;;;;;;3.50;2.00;;;;;;;;5084568;27;47407;-75
2023/09/28 05:15:02;;;;;;;;;5.50;2.00;;;;;;;;5076165;27;45661;-75
2023/09/28 05:17:28;;;;;;;;;1.00;1.00;;;;;;;;5073841;27;45665;-76
2023/09/28 05:19:53;;;;;;;;;3.75;2.00;;;;;;;;5087128;27;46707;-78
2023/09/28 05:22:19;;;;;;;;;5.00;1.00;;;;;;;;5079636;27;45855;-77
2023/09/28 05:24:45;;;;;;;;;3.75;2.25;;;;;;;;5077935;28;45491;-76
2023/09/28 05:27:10;;;;;;;;;2.75;1.75;;;;;;;;5078615;28;45885;-75
2023/09/28 05:29:36;;;;;;;;;3.00;2.75;;;;;;;;5079005;28;45982;-77
2023/09/28 05:32:02;;;;;;;;;3.00;1.75;;;;;;;;5080616;28;45803;-78
2023/09/28 05:34:28;;;;;;;;;4.50;2.75;;;;;;;;5079229;28;44772;-77
2023/09/28 05:36:53;;;;;;;;;4.00;3.00;;;;;;;;5086456;27;46084;-75
2023/09/28 05:39:19;;;;;;;;;4.50;2.25;;;;;;;;5082510;27;45405;-78
2023/09/28 05:41:45;;;;;;;;;4.75;3.25;;;;;;;;5091983;27;45536;-75
2023/09/28 05:44:10;;;;;;;;;3.50;3.00;;;;;;;;5088927;27;45379;-76
2023/09/28 05:46:36;;;;;;;;;4.25;2.00;;;;;;;;5094384;27;45315;-79
2023/09/28 05:49:01;;;;;;;;;6.50;2.00;;;;;;;;5087416;27;45946;-77
2023/09/28 05:51:27;;;;;;;;;2.50;1.50;;;;;;;;5083001;27;47239;-78
2023/09/28 05:53:53;;;;;;;;;3.00;2.00;;;;;;;;5084420;27;44812;-77
2023/09/28 05:56:18;;;;;;;;;3.50;1.00;;;;;;;;5095240;27;45269;-79
2023/09/28 05:58:43;;;;;;;;;7.25;1.00;;;;;;;;5100030;27;45703;-77
2023/09/28 06:01:13;;;;;;;;;3.25;1.75;;;;;;;;5079836;27;46521;-77
2023/09/28 06:03:38;;;;;;;;;3.75;1.25;;;;;;;;5083551;28;45453;-78
2023/09/28 06:06:22;;;;;;;;;3.50;2.75;;;;;;;;5082108;28;45475;-77
2023/09/28 06:08:48;;;;;;;;;2.50;2.50;;;;;;;;5091627;27;45817;-76
2023/09/28 06:11:13;;;;;;;;;2.00;2.00;;;;;;;;5093405;27;45562;-75
2023/09/28 06:13:40;;;;;;;;;3.50;2.00;;;;;;;;5081637;27;45424;-78
2023/09/28 06:16:05;;;;;;;;;4.25;2.00;;;;;;;;5074273;27;45491;-78
2023/09/28 06:18:30;;;;;;;;;3.00;2.00;;;;;;;;5081628;28;45855;-76
2023/09/28 06:20:56;;;;;;;;;2.75;2.00;;;;;;;;5081442;28;45733;-76
2023/09/28 06:23:21;;;;;;;;;3.25;1.00;;;;;;;;5078157;27;45513;-76
2023/09/28 06:25:47;;;;;;;;;4.00;2.50;;;;;;;;5088371;27;45941;-77
2023/09/28 06:28:12;;;;;;;;;4.75;2.00;;;;;;;;5078999;28;47037;-79
2023/09/28 06:30:37;;;;;;;;;4.00;2.00;;;;;;;;5090989;27;47402;-76
2023/09/28 06:33:03;;;;;;;;;5.50;3.25;;;;;;;;5089258;27;45351;-78
2023/09/28 06:35:28;;;;;;;;;6.00;3.50;;;;;;;;5081393;27;45756;-75
2023/09/28 06:37:53;;;;;;;;;3.50;2.00;;;;;;;;5086910;27;45672;-75
2023/09/28 06:40:19;;;;;;;;;5.75;3.75;;;;;;;;5079170;27;46798;-76
2023/09/28 06:42:44;;;;;;;;;6.75;2.75;;;;;;;;5078085;27;45535;-75
2023/09/28 06:45:11;;;;;;;;;7.25;2.75;;;;;;;;5079735;27;45398;-79
2023/09/28 06:47:36;;;;;;;;;2.00;1.50;;;;;;;;5099506;27;45881;-77
2023/09/28 06:50:04;;;;;;;;;4.00;2.75;;;;;;;;5080578;27;45642;-76
2023/09/28 06:52:29;;;;;;;;;3.00;1.75;;;;;;;;5078231;27;45437;-77
2023/09/28 06:54:55;;;;;;;;;3.25;1.25;;;;;;;;5078580;28;45368;-77
2023/09/28 06:57:23;;;;;;;;;1.75;1.75;;;;;;;;5089795;27;45720;-81
2023/09/28 06:59:48;;;;;;;;;2.50;2.50;;;;;;;;5078978;28;45959;-75
2023/09/28 07:02:14;;;;;;;;;3.75;1.00;;;;;;;;5085197;27;45549;-78
2023/09/28 07:04:39;;;;;;;;;2.00;2.00;;;;;;;;5086368;27;45855;-77
2023/09/28 07:07:05;;;;;;;;;3.50;2.25;;;;;;;;5070954;27;45770;-75
2023/09/28 07:09:30;;;;;;;;;3.50;2.00;;;;;;;;5073811;27;45795;-76
2023/09/28 07:11:56;;;;;;;;;6.00;4.00;;;;;;;;5078855;27;45848;-75
2023/09/28 07:14:21;;;;;;;;;3.25;3.00;;;;;;;;5079523;28;45448;-76
2023/09/28 07:16:47;;;;;;;;;3.25;3.00;;;;;;;;5093302;27;45521;-74
2023/09/28 07:19:12;;;;;;;;;7.50;3.00;;;;;;;;5075994;27;45890;-75
2023/09/28 07:21:37;;;;;;;;;2.25;1.25;;;;;;;;5078400;27;45788;-76
2023/09/28 07:24:02;;;;;;;;;7.50;5.25;;;;;;;;5078739;27;45475;-76
2023/09/28 07:26:28;;;;;;;;;4.00;3.00;;;;;;;;5087718;27;45633;-76
2023/09/28 07:28:54;;;;;;;;;3.25;2.75;;;;;;;;5078266;28;45767;-76
2023/09/28 07:31:21;;;;;;;;;4.50;3.00;;;;;;;;5082848;27;45429;-76
2023/09/28 07:33:48;;;;;;;;;4.50;2.25;;;;;;;;5072105;28;45490;-76
2023/09/28 07:36:14;;;;;;;;;3.00;3.00;;;;;;;;5078683;27;46658;-74
2023/09/28 07:38:39;;;;;;;;;3.25;2.25;;;;;;;;5081588;27;46054;-75
2023/09/28 07:41:05;;;;;;;;;1.25;1.25;;;;;;;;5099327;27;45727;-75
2023/09/28 07:43:30;;;;;;;;;3.25;1.50;;;;;;;;5081709;27;46058;-76
2023/09/28 07:45:55;;;;;;;;;3.50;3.50;;;;;;;;5081359;27;45380;-75
2023/09/28 07:48:21;;;;;;;;;3.25;2.25;;;;;;;;5083039;27;45740;-76
2023/09/28 07:50:46;;;;;;;;;3.00;2.00;;;;;;;;5089767;27;45334;-75
2023/09/28 07:53:11;;;;;;;;;5.25;2.50;;;;;;;;5092305;27;45821;-75
2023/09/28 07:55:37;;;;;;;;;3.75;1.75;;;;;;;;5077273;28;45444;-76
2023/09/28 07:58:02;;;;;;;;;4.50;3.75;;;;;;;;5080930;27;45441;-75
2023/09/28 08:00:27;;;;;;;;;1.00;1.00;;;;;;;;5084185;27;45564;-74
2023/09/28 08:02:53;;;;;;;;;5.50;3.00;;;;;;;;5077527;27;45856;-74
2023/09/28 08:05:18;;;;;;;;;7.00;4.00;;;;;;;;5080537;27;46778;-74
2023/09/28 08:07:43;;;;;;;;;4.00;2.50;;;;;;;;5083613;27;46133;-75
2023/09/28 08:10:11;;;;;;;;;4.50;2.50;;;;;;;;5078947;27;45503;-75
2023/09/28 08:12:37;;;;;;;;;1.75;1.00;;;;;;;;5074330;27;45373;-74
2023/09/28 08:15:03;;;;;;;;;1.25;1.25;;;;;;;;5084415;27;45432;-76
2023/09/28 08:17:29;;;;;;;;;4.00;3.00;;;;;;;;5084292;27;45533;-75
2023/09/28 08:19:56;;;;;;;;;5.25;2.25;;;;;;;;5080518;27;45404;-77
2023/09/28 08:22:22;;;;;;;;;3.00;2.75;;;;;;;;5076379;28;45401;-78
2023/09/28 08:24:48;;;;;;;;;3.75;3.00;;;;;;;;5074071;28;45876;-75
2023/09/28 08:27:13;;;;;;;;;4.00;2.75;;;;;;;;5077109;27;47508;-76
2023/09/28 08:29:38;;;;;;;;;3.50;2.25;;;;;;;;5078553;28;45802;-76
2023/09/28 08:32:04;;;;;;;;;7.75;5.25;;;;;;;;5084187;27;45374;-78
2023/09/28 08:34:32;;;;;;;;;8.00;4.00;;;;;;;;5069531;27;45580;-76
2023/09/28 08:36:57;;;;;;;;;1.50;1.25;;;;;;;;5091818;27;45679;-77
2023/09/28 08:39:23;;;;;;;;;2.50;1.75;;;;;;;;5069825;28;45718;-77
2023/09/28 08:41:54;;;;;;;;;5.00;2.75;;;;;;;;5080648;27;45340;-78
2023/09/28 08:44:21;;;;;;;;;6.50;5.75;;;;;;;;5091138;27;45651;-78
2023/09/28 08:46:48;;;;;;;;;4.00;1.50;;;;;;;;5080550;28;45415;-80
2023/09/28 08:49:15;;;;;;;;;3.00;3.00;;;;;;;;5083454;28;45342;-78
2023/09/28 08:51:42;;;;;;;;;1.75;1.00;;;;;;;;5085244;27;45446;-78
2023/09/28 08:54:07;;;;;;;;;3.25;2.50;;;;;;;;5072924;28;45910;-79
2023/09/28 08:56:37;;;;;;;;;3.75;2.50;;;;;;;;5079790;28;45682;-78
2023/09/28 08:59:06;;;;;;;;;4.25;1.00;;;;;;;;5074839;28;45679;-79
2023/09/28 09:01:34;;;;;;;;;3.50;1.00;;;;;;;;5074514;28;45509;-77
2023/09/28 09:04:00;;;;;;;;;5.50;5.50;;;;;;;;5072881;27;45856;-77
2023/09/28 09:06:28;;;;;;;;;6.00;2.25;;;;;;;;5091325;27;45604;-75
2023/09/28 09:08:54;;;;;;;;;1.00;1.00;;;;;;;;5078758;27;45434;-75
2023/09/28 09:11:22;;;;;;;;;6.25;3.25;;;;;;;;5091762;27;45494;-76
2023/09/28 09:13:48;;;;;;;;;3.75;3.25;;;;;;;;5082728;27;45719;-74
2023/09/28 09:16:14;;;;;;;;;1.50;1.00;;;;;;;;5078927;27;47075;-75
2023/09/28 09:18:41;;;;;;;;;1.00;1.00;;;;;;;;5077914;27;45872;-75
2023/09/28 09:21:07;;;;;;;;;4.25;2.25;;;;;;;;5081231;27;45475;-77
2023/09/28 09:23:32;;;;;;;;;3.25;2.00;;;;;;;;5088434;27;45355;-76
2023/09/28 09:25:58;;;;;;;;;2.25;2.00;;;;;;;;5088606;27;46431;-76
2023/09/28 09:28:32;;;;;;;;;2.00;1.25;;;;;;;;5078315;28;45436;-76
2023/09/28 09:30:58;;;;;;;;;1.25;1.25;;;;;;;;5065514;28;45463;-76
2023/09/28 09:33:24;;;;;;;;;2.25;2.00;;;;;;;;5086814;27;45807;-75
2023/09/28 09:36:07;;;;;;;;;3.25;2.00;;;;;;;;5078788;27;47041;-81
2023/09/28 09:38:33;;;;;;;;;4.25;3.25;;;;;;;;5073205;28;44787;-77
2023/09/28 09:40:59;;;;;;;;;1.50;1.50;;;;;;;;5074920;27;45417;-77
2023/09/28 09:43:24;;;;;;;;;1.00;1.00;;;;;;;;5079159;27;45350;-74
2023/09/28 09:45:49;;;;;;;;;2.75;2.75;;;;;;;;5077173;27;47459;-76
2023/09/28 09:48:16;;;;;;;;;3.00;1.00;;;;;;;;5084267;27;45749;-78
2023/09/28 09:50:43;;;;;;;;;4.00;2.00;;;;;;;;5066271;27;45773;-77
2023/09/28 09:53:09;;;;;;;;;2.25;2.25;;;;;;;;5078988;27;45724;-77
2023/09/28 09:55:39;;;;;;;;;5.75;3.00;;;;;;;;5069082;27;45529;-77
2023/09/28 09:58:04;;;;;;;;;3.20;1.80;;;;;;;;5076036;27;45488;-77
2023/09/28 10:00:33;;;;;;;;;2.00;1.00;;;;;;;;5069622;28;45362;-77
2023/09/28 10:02:59;;;;;;;;;2.75;2.75;;;;;;;;5070771;28;45478;-79
2023/09/28 10:05:27;;;;;;;;;1.00;1.00;;;;;;;;5079910;27;45405;-79
2023/09/28 10:07:53;;;;;;;;;7.20;1.60;;;;;;;;5075326;27;45375;-76
2023/09/28 10:10:19;;;;;;;;;1.75;1.00;;;;;;;;5077052;27;45768;-77
2023/09/28 10:12:45;;;;;;;;;2.00;1.00;;;;;;;;5075345;27;45815;-76
2023/09/28 10:15:11;;;;;;;;;4.40;1.40;;;;;;;;5070432;27;47621;-75
2023/09/28 10:17:37;;;;;;;;;2.75;2.25;;;;;;;;5073939;28;46060;-76
2023/09/28 10:20:02;;;;;;;;;0.00;0.00;;;;;;;;5085728;27;45536;-78
2023/09/28 10:22:28;;;;;;;;;3.75;0.75;;;;;;;;5089345;27;45669;-79
2023/09/28 10:24:54;;;;;;;;;1.25;1.25;;;;;;;;5073361;27;45421;-76
2023/09/28 10:27:19;;;;;;;;;2.25;1.25;;;;;;;;5078423;27;45714;-77
2023/09/28 10:29:44;;;;;;;;;2.00;2.00;;;;;;;;5071160;27;45797;-77
2023/09/28 10:32:19;;;;;;;;;2.75;2.00;;;;;;;;5075101;27;45935;-78
2023/09/28 10:34:46;;;;;;;;;3.00;3.00;;;;;;;;5069361;27;45749;-78
2023/09/28 10:37:18;;;;;;;;;3.00;1.60;;;;;;;;5072376;27;45410;-78
2023/09/28 10:39:53;;;;;;;;;3.75;2.00;;;;;;;;5067382;27;45869;-75
2023/09/28 10:42:19;;;;;;;;;3.75;1.75;;;;;;;;5073646;27;45920;-73
2023/09/28 10:44:48;;;;;;;;;5.75;1.25;;;;;;;;5075923;27;46152;-73
2023/09/28 10:47:14;;;;;;;;;2.00;2.00;;;;;;;;5078166;27;45557;-74
2023/09/28 10:49:39;;;;;;;;;5.50;2.50;;;;;;;;5080055;27;45932;-74
2023/09/28 10:52:08;;;;;;;;;2.75;2.00;;;;;;;;5071481;27;45403;-75
2023/09/28 10:54:33;;;;;;;;;4.00;3.00;;;;;;;;5069272;27;45880;-74
2023/09/28 10:56:59;;;;;;;;;4.50;2.00;;;;;;;;5067586;27;45530;-77
2023/09/28 10:59:25;;;;;;;;;5.00;1.25;;;;;;;;5067727;27;45787;-76
2023/09/28 11:01:50;;;;;;;;;1.25;0.00;;;;;;;;5075134;27;45469;-75
2023/09/28 11:04:16;;;;;;;;;2.00;2.00;;;;;;;;5071535;27;45753;-74
2023/09/28 11:06:43;;;;;;;;;0.50;0.00;;;;;;;;5069300;27;45791;-74
2023/09/28 11:09:09;;;;;;;;;1.50;1.50;;;;;;;;5072648;27;45752;-74
2023/09/28 11:11:35;;;;;;;;;2.50;1.00;;;;;;;;5087622;27;47086;-72
2023/09/28 11:14:00;;;;;;;;;2.75;2.00;;;;;;;;5081399;27;45814;-76
2023/09/28 11:16:31;;;;;;;;;2.50;1.25;;;;;;;;5087762;27;45548;-77
2023/09/28 11:18:58;;;;;;;;;2.50;2.50;;;;;;;;5076223;28;45634;-79
2023/09/28 11:21:26;;;;;;;;;5.00;4.25;;;;;;;;5084181;28;45401;-79
2023/09/28 11:23:54;;;;;;;;;4.25;2.00;;;;;;;;5084085;27;45984;-80
2023/09/28 11:26:20;;;;;;;;;2.00;1.00;;;;;;;;5071848;28;45548;-77
2023/09/28 11:28:45;;;;;;;;;1.75;1.00;;;;;;;;5069614;27;45761;-77
2023/09/28 11:31:12;;;;;;;;;2.50;1.75;;;;;;;;5078334;28;46542;-76
2023/09/28 11:33:42;;;;;;;;;4.00;3.50;;;;;;;;5076123;27;45532;-77
2023/09/28 11:36:08;;;;;;;;;5.20;1.20;;;;;;;;5068642;28;45611;-76
2023/09/28 11:38:33;;;;;;;;;1.75;1.00;;;;;;;;5074155;27;45950;-76
2023/09/28 11:41:01;;;;;;;;;3.00;2.50;;;;;;;;5070917;27;45738;-76
2023/09/28 11:43:26;;;;;;;;;1.25;1.00;;;;;;;;5074871;27;45645;-77
2023/09/28 11:45:51;;;;;;;;;2.25;1.25;;;;;;;;5076993;28;45441;-78
2023/09/28 11:48:24;;;;;;;;;3.00;2.00;;;;;;;;5071812;27;45645;-75
2023/09/28 11:50:50;;;;;;;;;4.00;2.00;;;;;;;;5064551;27;45486;-76
2023/09/28 11:53:15;;;;;;;;;3.25;1.50;;;;;;;;5074919;27;45488;-77
2023/09/28 11:55:44;;;;;;;;;1.50;0.00;;;;;;;;5065074;27;45829;-76
2023/09/28 11:58:09;;;;;;;;;3.75;1.00;;;;;;;;5072552;27;45737;-76
2023/09/28 12:00:38;;;;;;;;;0.00;0.00;;;;;;;;5073798;27;45842;-75
2023/09/28 12:03:04;;;;;;;;;2.00;2.00;;;;;;;;5069100;27;45773;-75
2023/09/28 12:05:31;;;;;;;;;1.00;1.00;;;;;;;;5070808;27;45534;-75
2023/09/28 12:07:56;;;;;;;;;2.75;1.50;;;;;;;;5078764;27;45622;-75
2023/09/28 12:10:21;;;;;;;;;4.00;2.75;;;;;;;;5075720;27;45506;-76
2023/09/28 12:12:46;;;;;;;;;1.25;1.25;;;;;;;;5068177;28;46190;-75
2023/09/28 12:15:15;;;;;;;;;4.25;1.00;;;;;;;;5080496;27;45481;-77
2023/09/28 12:17:41;;;;;;;;;2.25;2.00;;;;;;;;5076295;27;45334;-76
2023/09/28 12:20:08;;;;;;;;;1.75;0.00;;;;;;;;5072305;28;45538;-76
2023/09/28 12:22:34;;;;;;;;;1.00;1.00;;;;;;;;5067640;27;45513;-75
2023/09/28 12:24:59;;;;;;;;;2.00;1.00;;;;;;;;5073056;27;45975;-76
2023/09/28 12:27:25;;;;;;;;;2.25;1.00;;;;;;;;5071255;27;45611;-75
2023/09/28 12:29:50;;;;;;;;;2.00;2.00;;;;;;;;5079107;27;45331;-79
2023/09/28 12:32:16;;;;;;;;;2.50;2.00;;;;;;;;5079990;27;45459;-75
2023/09/28 12:34:41;;;;;;;;;2.25;1.25;;;;;;;;5076993;27;45920;-76
2023/09/28 12:37:07;;;;;;;;;2.50;2.50;;;;;;;;5074920;27;45376;-75
2023/09/28 12:39:33;;;;;;;;;5.50;2.00;;;;;;;;5072826;27;46034;-77
2023/09/28 12:41:58;;;;;;;;;0.75;0.75;;;;;;;;5071355;27;45901;-75
2023/09/28 12:44:24;;;;;;;;;3.50;1.75;;;;;;;;5068792;27;45836;-75
2023/09/28 12:46:50;;;;;;;;;1.00;1.00;;;;;;;;5078601;27;45993;-75
2023/09/28 12:49:16;;;;;;;;;1.00;1.00;;;;;;;;5076153;27;45767;-74
2023/09/28 12:51:47;;;;;;;;;2.25;2.00;;;;;;;;5072743;27;46288;-77
2023/09/28 12:54:17;;;;;;;;;2.00;0.50;;;;;;;;5070997;27;45809;-76
2023/09/28 12:56:45;;;;;;;;;5.00;1.25;;;;;;;;5065217;27;45803;-78
2023/09/28 12:59:10;;;;;;;;;0.50;0.50;;;;;;;;5070713;28;45619;-75
2023/09/28 13:01:35;;;;;;;;;2.75;1.50;;;;;;;;5068228;27;45479;-76
2023/09/28 13:04:04;;;;;;;;;4.00;0.25;;;;;;;;5076972;27;45571;-76
2023/09/28 13:06:30;;;;;;;;;3.25;1.50;;;;;;;;5078825;27;45689;-77
2023/09/28 13:08:55;;;;;;;;;5.50;1.00;;;;;;;;5077480;28;45429;-76
2023/09/28 13:11:21;;;;;;;;;6.00;3.00;;;;;;;;5062181;27;48007;-76
2023/09/28 13:13:46;;;;;;;;;2.00;0.25;;;;;;;;5077605;27;45824;-76
2023/09/28 13:16:13;;;;;;;;;3.00;1.25;;;;;;;;5064626;27;45354;-76
2023/09/28 13:18:38;;;;;;;;;3.75;1.75;;;;;;;;5074797;27;45729;-77
2023/09/28 13:21:04;;;;;;;;;4.00;3.00;;;;;;;;5074960;28;48679;-76
2023/09/28 13:23:29;;;;;;;;;3.00;0.50;;;;;;;;5074868;27;45426;-77
2023/09/28 13:25:55;;;;;;;;;1.50;1.50;;;;;;;;5077133;27;45425;-74
2023/09/28 13:28:20;;;;;;;;;1.00;1.00;;;;;;;;5071146;28;45978;-75
2023/09/28 13:30:47;;;;;;;;;2.00;2.00;;;;;;;;5069150;27;45992;-76
2023/09/28 13:33:13;;;;;;;;;2.50;1.50;;;;;;;;5074129;27;45565;-75
2023/09/28 13:35:40;;;;;;;;;3.50;1.75;;;;;;;;5069273;27;45737;-75
2023/09/28 13:38:08;;;;;;;;;1.50;1.50;;;;;;;;5062119;27;46006;-77
2023/09/28 13:40:33;;;;;;;;;1.25;0.75;;;;;;;;5065497;27;45606;-76
2023/09/28 13:43:04;;;;;;;;;4.00;2.00;;;;;;;;5070587;27;45782;-77
2023/09/28 13:45:30;;;;;;;;;2.00;1.00;;;;;;;;5077319;27;45384;-76
2023/09/28 13:47:55;;;;;;;;;1.50;1.25;;;;;;;;5070253;27;45547;-76
2023/09/28 13:50:21;;;;;;;;;1.25;0.25;;;;;;;;5067792;27;45850;-77
2023/09/28 13:52:46;;;;;;;;;2.25;1.00;;;;;;;;5067601;27;45472;-77
2023/09/28 13:55:16;;;;;;;;;1.00;1.00;;;;;;;;5072388;27;45193;-77
2023/09/28 13:57:44;;;;;;;;;4.00;1.00;;;;;;;;5075830;27;45484;-78
2023/09/28 14:00:16;;;;;;;;;2.00;1.00;;;;;;;;5079413;27;46495;-77
2023/09/28 14:02:42;;;;;;;;;1.00;1.00;;;;;;;;5073294;27;46938;-75
2023/09/28 14:05:08;;;;;;;;;3.00;1.00;;;;;;;;5071629;27;45489;-76
2023/09/28 14:07:33;;;;;;;;;8.00;2.00;;;;;;;;5086004;27;45937;-76
2023/09/28 14:09:58;;;;;;;;;3.25;0.25;;;;;;;;5071026;27;46428;-76
2023/09/28 14:12:25;;;;;;;;;1.00;1.00;;;;;;;;5066795;27;45409;-77
2023/09/28 14:14:50;;;;;;;;;1.25;1.25;;;;;;;;5078482;27;45773;-77
2023/09/28 14:17:16;;;;;;;;;0.50;0.50;;;;;;;;5069819;27;45712;-77
2023/09/28 14:19:41;;;;;;;;;2.75;1.00;;;;;;;;5072941;27;45955;-76
2023/09/28 14:22:07;;;;;;;;;3.25;2.00;;;;;;;;5074503;27;45451;-81
2023/09/28 14:24:32;;;;;;;;;3.00;2.00;;;;;;;;5068864;27;46307;-76
2023/09/28 14:26:58;;;;;;;;;2.50;1.25;;;;;;;;5071813;27;45636;-76
2023/09/28 14:29:24;;;;;;;;;0.75;0.75;;;;;;;;5077739;27;47157;-75
2023/09/28 14:31:49;;;;;;;;;2.00;2.00;;;;;;;;5075554;27;45566;-76
2023/09/28 14:34:14;;;;;;;;;1.25;1.25;;;;;;;;5068814;27;45437;-76
2023/09/28 14:36:41;;;;;;;;;3.00;0.50;;;;;;;;5080327;27;45738;-76